Chattaroy, Washington
Current Conditions -  °F | °C
As of 6:01 AM on Wednesday 28 Jan 2015 (Local Time) from KDEW Reporting Station
Haze Haze  
Wind Chill: 33°   Ceiling: 600
Heat Index: 33°   Visibility: 6mi
Dew Point: 32°   Wind: 3mph
Humidity: 96%   Direction: 260°W
Pressure: 30.3"   Gusts: NA
Location:  47.89°N, 117.36°W
Report Text: KDEW 281401Z AUTO 26003KT 6SM BR OVC006 01/00 A3030 RMK AO2 T00060000
Loading
Personal Weather Stations






























Interactive Weather Map New forecast layout! Learn more

10-Day Weather Forecast

Advertisements
Track Severe Weather on mobile